Time;durP1;ratioP1;P1;durP2;ratioP2;P2;SDS_P1;SDS_P2;PMS_P1;PMS_P2;Temp;Humidity;BMP_temperature;BMP_pressure;BME280_temperature;BME280_humidity;BME280_pressure;Samples;Min_cycle;Max_cycle;Signal;HPM_P1;HPM_P2
2022/08/25 00:00:46;;;;;;;;;;;27.20;45.50;;;;;;5117523;28;20437;-76
2022/08/25 00:03:12;;;;;;;;;;;27.30;45.60;;;;;;5116188;28;19918;-75
2022/08/25 00:05:38;;;;;;;;;;;27.30;45.60;;;;;;5115981;28;19911;-75
2022/08/25 00:08:05;;;;;;;;;;;27.20;45.60;;;;;;5114916;28;20449;-81
2022/08/25 00:10:33;;;;;;;;;;;27.20;45.60;;;;;;5114864;28;19915;-74
2022/08/25 00:13:00;;;;;;;;;;;27.20;45.60;;;;;;5116245;28;20019;-75
2022/08/25 00:15:25;;;;;;;;;;;27.20;45.60;;;;;;5115627;28;19912;-74
2022/08/25 00:17:51;;;;;;;;;;;27.20;45.70;;;;;;5115189;28;20390;-74
2022/08/25 00:20:17;;;;;;;;;;;27.20;45.60;;;;;;5115900;27;20277;-75
2022/08/25 00:22:44;;;;;;;;;;;27.20;45.70;;;;;;5115858;28;20373;-76
2022/08/25 00:25:10;;;;;;;;;;;27.20;45.70;;;;;;5116601;28;19908;-75
2022/08/25 00:27:36;;;;;;;;;;;27.20;45.70;;;;;;5115534;28;20385;-72
2022/08/25 00:30:02;;;;;;;;;;;27.20;45.70;;;;;;5116412;28;19962;-75
2022/08/25 00:32:27;;;;;;;;;;;27.20;45.80;;;;;;5115093;28;20372;-75
2022/08/25 00:34:53;;;;;;;;;;;27.20;45.90;;;;;;5115351;28;19912;-76
2022/08/25 00:37:18;;;;;;;;;;;27.10;45.80;;;;;;5115662;28;20006;-74
2022/08/25 00:39:44;;;;;;;;;;;27.10;45.80;;;;;;5115419;28;19966;-76
2022/08/25 00:42:09;;;;;;;;;;;27.10;45.80;;;;;;5114176;28;19957;-78
2022/08/25 00:44:35;;;;;;;;;;;27.10;45.90;;;;;;5115782;28;20273;-76
2022/08/25 00:47:02;;;;;;;;;;;27.10;45.90;;;;;;5116224;28;19953;-75
2022/08/25 00:49:37;;;;;;;;;;;27.10;45.90;;;;;;5116317;28;19915;-75
2022/08/25 00:52:21;;;;;;;;;;;27.10;46.00;;;;;;5116587;28;19961;-76
2022/08/25 00:54:50;;;;;;;;;;;27.10;46.00;;;;;;5114725;28;19958;-76
2022/08/25 00:57:17;;;;;;;;;;;27.10;46.10;;;;;;5115180;28;19912;-76
2022/08/25 00:59:43;;;;;;;;;;;27.10;46.20;;;;;;5114899;28;19916;-75
2022/08/25 01:02:09;;;;;;;;;;;27.10;46.20;;;;;;5114155;28;19919;-75
2022/08/25 01:04:36;;;;;;;;;;;27.10;46.30;;;;;;5116167;28;20350;-77
2022/08/25 01:07:02;;;;;;;;;;;27.00;46.20;;;;;;5115288;28;19908;-75
2022/08/25 01:09:30;;;;;;;;;;;27.00;46.30;;;;;;5114964;28;19953;-76
2022/08/25 01:11:56;;;;;;;;;;;27.00;46.30;;;;;;5114720;28;20325;-77
2022/08/25 01:14:23;;;;;;;;;;;27.00;46.40;;;;;;5114840;28;19999;-76
2022/08/25 01:16:49;;;;;;;;;;;27.00;46.40;;;;;;5115451;28;20006;-82
2022/08/25 01:19:14;;;;;;;;;;;27.00;46.50;;;;;;5115790;28;19985;-76
2022/08/25 01:21:48;;;;;;;;;;;27.00;46.50;;;;;;5115448;28;20255;-76
2022/08/25 01:24:24;;;;;;;;;;;27.00;46.60;;;;;;5115501;28;20266;-76
2022/08/25 01:26:50;;;;;;;;;;;27.00;46.60;;;;;;5115778;28;20318;-74
2022/08/25 01:29:24;;;;;;;;;;;26.90;46.50;;;;;;5115339;28;19998;-76
2022/08/25 01:31:51;;;;;;;;;;;27.00;46.60;;;;;;5114301;28;20363;-76
2022/08/25 01:34:18;;;;;;;;;;;27.00;46.60;;;;;;5115421;28;19908;-76
2022/08/25 01:36:43;;;;;;;;;;;27.00;46.70;;;;;;5114317;28;19950;-75
2022/08/25 01:39:09;;;;;;;;;;;26.90;46.50;;;;;;5114326;28;20012;-75
2022/08/25 01:41:43;;;;;;;;;;;26.90;46.50;;;;;;5113085;28;20284;-73
2022/08/25 01:44:09;;;;;;;;;;;26.90;46.50;;;;;;5114498;28;19918;-75
2022/08/25 01:46:35;;;;;;;;;;;26.90;46.50;;;;;;5114898;28;19908;-74
2022/08/25 01:49:01;;;;;;;;;;;26.90;46.60;;;;;;5114084;28;19914;-75
2022/08/25 01:51:28;;;;;;;;;;;26.90;46.60;;;;;;5115093;28;20006;-76
2022/08/25 01:53:54;;;;;;;;;;;26.90;46.70;;;;;;5115105;28;19911;-76
2022/08/25 01:56:19;;;;;;;;;;;26.90;46.80;;;;;;5113906;28;20403;-76
2022/08/25 01:58:47;;;;;;;;;;;26.90;46.70;;;;;;5114569;28;19916;-75
2022/08/25 02:01:17;;;;;;;;;;;26.80;46.70;;;;;;5114817;28;19918;-75
2022/08/25 02:03:44;;;;;;;;;;;26.80;46.70;;;;;;5114935;28;19911;-76
2022/08/25 02:06:14;;;;;;;;;;;26.80;46.80;;;;;;5113967;28;19944;-76
2022/08/25 02:08:39;;;;;;;;;;;26.90;47.00;;;;;;5113053;28;19908;-76
2022/08/25 02:11:10;;;;;;;;;;;26.80;46.90;;;;;;5113922;28;20400;-76
2022/08/25 02:13:36;;;;;;;;;;;26.80;47.50;;;;;;5113849;28;20003;-72
2022/08/25 02:16:01;;;;;;;;;;;26.80;46.90;;;;;;5114350;28;20345;-76
2022/08/25 02:18:27;;;;;;;;;;;26.80;47.00;;;;;;5114797;28;19908;-76
2022/08/25 02:20:53;;;;;;;;;;;26.80;47.00;;;;;;5114854;28;19916;-76
2022/08/25 02:23:19;;;;;;;;;;;26.80;47.00;;;;;;5114776;28;19912;-80
2022/08/25 02:25:44;;;;;;;;;;;26.80;47.00;;;;;;5114671;28;19981;-76
2022/08/25 02:28:10;;;;;;;;;;;26.80;47.00;;;;;;5114860;28;20380;-76
2022/08/25 02:30:36;;;;;;;;;;;26.80;47.00;;;;;;5114243;28;19908;-76
2022/08/25 02:33:02;;;;;;;;;;;26.80;47.10;;;;;;5111891;28;20281;-75
2022/08/25 02:35:28;;;;;;;;;;;26.80;47.00;;;;;;5113715;28;20365;-75
2022/08/25 02:37:53;;;;;;;;;;;26.80;47.00;;;;;;5112447;28;20258;-77
2022/08/25 02:40:22;;;;;;;;;;;26.80;47.10;;;;;;5113397;28;19966;-79
2022/08/25 02:42:48;;;;;;;;;;;26.80;47.10;;;;;;5113701;28;19918;-75
2022/08/25 02:45:14;;;;;;;;;;;26.80;47.10;;;;;;5114413;28;19911;-76
2022/08/25 02:47:40;;;;;;;;;;;26.80;47.10;;;;;;5114893;28;19908;-74
2022/08/25 02:50:06;;;;;;;;;;;26.80;47.10;;;;;;5114271;28;20365;-74
2022/08/25 02:52:31;;;;;;;;;;;26.80;47.10;;;;;;5114286;28;20346;-77
2022/08/25 02:54:57;;;;;;;;;;;26.70;47.10;;;;;;5113482;28;19915;-77
2022/08/25 02:57:23;;;;;;;;;;;26.70;47.00;;;;;;5113368;28;19908;-77
2022/08/25 02:59:48;;;;;;;;;;;26.70;47.10;;;;;;5118165;28;19962;-77
2022/08/25 03:02:15;;;;;;;;;;;26.70;47.10;;;;;;5118441;28;19911;-76
2022/08/25 03:04:41;;;;;;;;;;;26.70;47.10;;;;;;5116483;28;19915;-76
2022/08/25 03:07:06;;;;;;;;;;;26.70;47.20;;;;;;5117402;28;19908;-80
2022/08/25 03:09:32;;;;;;;;;;;26.70;47.30;;;;;;5116194;28;20002;-75
2022/08/25 03:11:57;;;;;;;;;;;26.70;47.30;;;;;;5117144;28;19914;-76
2022/08/25 03:14:23;;;;;;;;;;;26.70;47.30;;;;;;5118109;28;20334;-75
2022/08/25 03:16:49;;;;;;;;;;;26.70;47.40;;;;;;5117787;28;19996;-76
2022/08/25 03:19:15;;;;;;;;;;;26.70;47.40;;;;;;5117950;28;19908;-78
2022/08/25 03:21:41;;;;;;;;;;;26.70;47.50;;;;;;5118534;28;19951;-76
2022/08/25 03:24:06;;;;;;;;;;;26.70;47.30;;;;;;5117885;28;19978;-76
2022/08/25 03:29:17;;;;;;;;;;;26.70;47.50;;;;;;5117257;28;20006;-77
2022/08/25 03:31:44;;;;;;;;;;;26.70;47.50;;;;;;5116806;28;19908;-76
2022/08/25 03:34:10;;;;;;;;;;;26.70;47.50;;;;;;5117242;28;19911;-76
2022/08/25 03:36:35;;;;;;;;;;;26.80;47.60;;;;;;5116919;28;19916;-72
2022/08/25 03:39:02;;;;;;;;;;;26.80;47.50;;;;;;5117081;28;20368;-75
2022/08/25 03:41:28;;;;;;;;;;;26.80;47.60;;;;;;5116483;28;19938;-75
2022/08/25 03:43:54;;;;;;;;;;;26.80;47.60;;;;;;5115489;28;19937;-75
2022/08/25 03:46:28;;;;;;;;;;;26.80;47.50;;;;;;5116190;28;19955;-75
2022/08/25 03:48:54;;;;;;;;;;;26.80;47.50;;;;;;5117392;28;19907;-76
2022/08/25 03:51:28;;;;;;;;;;;26.80;47.40;;;;;;5117030;28;19914;-79
2022/08/25 03:53:53;;;;;;;;;;;26.90;48.10;;;;;;5116122;28;19953;-76
2022/08/25 03:56:19;;;;;;;;;;;26.90;47.50;;;;;;5117250;28;19911;-76
2022/08/25 03:58:45;;;;;;;;;;;27.00;47.50;;;;;;5116680;28;19912;-76
2022/08/25 04:01:11;;;;;;;;;;;27.00;47.40;;;;;;5115724;28;20369;-77
2022/08/25 04:03:36;;;;;;;;;;;27.10;47.30;;;;;;5115812;28;20361;-75
2022/08/25 04:06:03;;;;;;;;;;;27.10;47.30;;;;;;5116886;28;20278;-79
2022/08/25 04:08:28;;;;;;;;;;;27.10;47.10;;;;;;5116487;28;19912;-76
2022/08/25 04:10:54;;;;;;;;;;;27.10;47.20;;;;;;5116603;28;20319;-77
2022/08/25 04:13:20;;;;;;;;;;;27.10;47.20;;;;;;5117621;28;19946;-76
2022/08/25 04:15:45;;;;;;;;;;;27.10;47.00;;;;;;5115934;28;19912;-76
2022/08/25 04:18:12;;;;;;;;;;;27.10;47.10;;;;;;5115022;28;19923;-76
2022/08/25 04:20:37;;;;;;;;;;;27.10;47.00;;;;;;5115966;28;19915;-76
2022/08/25 04:23:03;;;;;;;;;;;27.10;47.20;;;;;;5115779;28;19912;-74
2022/08/25 04:25:30;;;;;;;;;;;27.10;47.20;;;;;;5114413;28;19907;-75
2022/08/25 04:27:56;;;;;;;;;;;27.10;47.20;;;;;;5115634;28;19912;-77
2022/08/25 04:30:22;;;;;;;;;;;27.10;47.20;;;;;;5116891;28;19914;-74
2022/08/25 04:32:48;;;;;;;;;;;27.10;47.20;;;;;;5115081;28;20421;-76
2022/08/25 04:35:14;;;;;;;;;;;27.20;47.20;;;;;;5116344;28;20002;-76
2022/08/25 04:37:40;;;;;;;;;;;27.10;47.20;;;;;;5116521;28;19978;-75
2022/08/25 04:40:05;;;;;;;;;;;27.20;47.30;;;;;;5114673;28;20373;-76
2022/08/25 04:42:31;;;;;;;;;;;27.20;47.30;;;;;;5115886;28;19956;-76
2022/08/25 04:44:57;;;;;;;;;;;27.20;47.20;;;;;;5116176;28;19908;-76
2022/08/25 04:47:23;;;;;;;;;;;27.20;47.20;;;;;;5114702;28;20362;-76
2022/08/25 04:49:48;;;;;;;;;;;27.20;47.20;;;;;;5114126;28;19911;-76
2022/08/25 04:52:14;;;;;;;;;;;27.20;47.20;;;;;;5115094;28;19985;-76
2022/08/25 04:54:40;;;;;;;;;;;27.20;47.10;;;;;;5115058;28;19998;-76
2022/08/25 04:57:05;;;;;;;;;;;27.20;47.20;;;;;;5115472;28;20675;-75
2022/08/25 04:59:31;;;;;;;;;;;27.20;47.20;;;;;;5115753;28;20346;-75
2022/08/25 05:02:00;;;;;;;;;;;27.20;47.20;;;;;;5115130;28;20385;-77
2022/08/25 05:04:26;;;;;;;;;;;27.20;47.00;;;;;;5115465;28;19972;-81
2022/08/25 05:06:52;;;;;;;;;;;27.20;47.00;;;;;;5114266;28;19908;-75
2022/08/25 05:09:17;;;;;;;;;;;27.30;47.10;;;;;;5115627;28;19912;-77
2022/08/25 05:11:43;;;;;;;;;;;27.30;47.10;;;;;;5114078;28;19912;-76
2022/08/25 05:14:11;;;;;;;;;;;27.30;47.10;;;;;;5114059;28;19908;-77
2022/08/25 05:16:37;;;;;;;;;;;27.30;47.10;;;;;;5114219;28;19919;-72
2022/08/25 05:19:03;;;;;;;;;;;27.30;47.20;;;;;;5115414;28;19996;-77
2022/08/25 05:21:29;;;;;;;;;;;27.30;47.10;;;;;;5113370;28;19918;-75
2022/08/25 05:23:58;;;;;;;;;;;27.30;47.10;;;;;;5115423;28;20300;-77
2022/08/25 05:26:25;;;;;;;;;;;27.30;47.00;;;;;;5110581;28;19951;-81
2022/08/25 05:28:52;;;;;;;;;;;27.30;47.00;;;;;;5114020;28;19938;-76
2022/08/25 05:31:18;;;;;;;;;;;27.30;47.00;;;;;;5114089;28;19923;-75
2022/08/25 05:33:44;;;;;;;;;;;27.40;47.10;;;;;;5113567;28;20255;-75
2022/08/25 05:36:10;;;;;;;;;;;27.40;47.10;;;;;;5113813;28;19916;-76
2022/08/25 05:38:36;;;;;;;;;;;27.40;47.10;;;;;;5112312;28;19914;-77
2022/08/25 05:41:04;;;;;;;;;;;27.40;47.10;;;;;;5113951;28;19911;-75
2022/08/25 05:43:30;;;;;;;;;;;27.40;47.00;;;;;;5112500;28;19960;-75
2022/08/25 05:45:56;;;;;;;;;;;27.40;47.00;;;;;;5113961;28;19911;-74
2022/08/25 05:48:22;;;;;;;;;;;27.40;47.10;;;;;;5113245;28;19907;-75
2022/08/25 05:50:51;;;;;;;;;;;27.40;47.10;;;;;;5114338;27;20018;-77
2022/08/25 05:53:17;;;;;;;;;;;27.40;47.00;;;;;;5112009;27;20312;-74
2022/08/25 05:55:43;;;;;;;;;;;27.40;47.00;;;;;;5113723;28;19919;-76
2022/08/25 05:58:09;;;;;;;;;;;27.40;47.00;;;;;;5110628;28;19915;-73
2022/08/25 06:00:36;;;;;;;;;;;27.50;47.20;;;;;;5113441;28;19923;-77
2022/08/25 06:03:01;;;;;;;;;;;27.50;47.10;;;;;;5113570;28;19933;-77
2022/08/25 06:05:28;;;;;;;;;;;27.50;47.10;;;;;;5111498;28;19907;-79
2022/08/25 06:07:54;;;;;;;;;;;27.50;47.10;;;;;;5110415;28;19920;-79
2022/08/25 06:10:20;;;;;;;;;;;27.50;47.10;;;;;;5112990;28;19917;-80
2022/08/25 06:12:46;;;;;;;;;;;27.50;47.10;;;;;;5114018;28;19919;-75
2022/08/25 06:15:15;;;;;;;;;;;27.50;47.20;;;;;;5112657;28;20453;-77
2022/08/25 06:17:41;;;;;;;;;;;27.50;47.20;;;;;;5111698;28;19996;-80
2022/08/25 06:20:08;;;;;;;;;;;27.60;47.20;;;;;;5112653;28;19963;-73
2022/08/25 06:22:34;;;;;;;;;;;27.60;47.40;;;;;;5111071;28;19923;-70
2022/08/25 06:25:00;;;;;;;;;;;27.60;47.50;;;;;;5113817;28;19911;-71
2022/08/25 06:27:25;;;;;;;;;;;27.60;47.60;;;;;;5114020;28;20390;-74
2022/08/25 06:29:51;;;;;;;;;;;27.60;47.70;;;;;;5113782;28;19911;-73
2022/08/25 06:32:16;;;;;;;;;;;27.60;47.70;;;;;;5112838;28;19961;-74
2022/08/25 06:34:42;;;;;;;;;;;27.60;47.70;;;;;;5112980;28;19907;-73
2022/08/25 06:37:08;;;;;;;;;;;27.70;47.60;;;;;;5113529;28;19915;-73
2022/08/25 06:39:33;;;;;;;;;;;27.70;47.60;;;;;;5113952;28;20381;-72
2022/08/25 06:41:59;;;;;;;;;;;27.70;47.60;;;;;;5113809;28;20284;-72
2022/08/25 06:44:26;;;;;;;;;;;27.70;47.50;;;;;;5113659;28;20429;-74
2022/08/25 06:46:51;;;;;;;;;;;27.80;47.50;;;;;;5113715;28;20033;-73
2022/08/25 06:49:17;;;;;;;;;;;27.80;47.50;;;;;;5112286;28;19947;-74
2022/08/25 06:51:43;;;;;;;;;;;27.70;47.40;;;;;;5113869;28;20386;-73
2022/08/25 06:54:11;;;;;;;;;;;27.80;47.50;;;;;;5113901;28;19908;-72
2022/08/25 06:56:39;;;;;;;;;;;27.80;47.40;;;;;;5112288;28;19908;-73
2022/08/25 06:59:04;;;;;;;;;;;27.80;47.40;;;;;;5112433;28;19911;-73
2022/08/25 07:01:30;;;;;;;;;;;27.80;47.40;;;;;;5113434;28;19942;-72
2022/08/25 07:03:57;;;;;;;;;;;27.80;47.20;;;;;;5113602;28;19911;-73
2022/08/25 07:06:23;;;;;;;;;;;27.80;47.20;;;;;;5112309;28;19919;-73
2022/08/25 07:08:49;;;;;;;;;;;27.80;47.30;;;;;;5113661;28;19912;-72
2022/08/25 07:11:15;;;;;;;;;;;27.80;47.30;;;;;;5112135;28;19968;-73
2022/08/25 07:13:40;;;;;;;;;;;27.80;47.20;;;;;;5112520;28;19965;-72
2022/08/25 07:16:06;;;;;;;;;;;27.90;47.30;;;;;;5113234;28;19912;-72
2022/08/25 07:18:32;;;;;;;;;;;27.90;47.20;;;;;;5111822;28;20354;-72
2022/08/25 07:20:58;;;;;;;;;;;27.90;47.20;;;;;;5112487;28;20306;-71
2022/08/25 07:23:24;;;;;;;;;;;27.90;47.20;;;;;;5112438;28;20250;-72
2022/08/25 07:25:51;;;;;;;;;;;27.90;47.20;;;;;;5111809;28;19934;-75
2022/08/25 07:28:16;;;;;;;;;;;27.90;47.10;;;;;;5111445;28;19908;-73
2022/08/25 07:30:42;;;;;;;;;;;27.90;47.10;;;;;;5113125;28;20006;-72
2022/08/25 07:33:08;;;;;;;;;;;27.90;47.10;;;;;;5112903;28;20361;-74
2022/08/25 07:35:36;;;;;;;;;;;28.00;47.10;;;;;;5112224;28;19908;-70
2022/08/25 07:38:02;;;;;;;;;;;28.00;47.10;;;;;;5111517;28;19916;-75
2022/08/25 07:40:30;;;;;;;;;;;28.00;47.10;;;;;;5111665;28;19969;-76
2022/08/25 07:42:57;;;;;;;;;;;28.00;47.10;;;;;;5109473;28;19923;-74
2022/08/25 07:45:29;;;;;;;;;;;28.00;46.90;;;;;;5115358;28;19911;-73
2022/08/25 07:48:21;;;;;;;;;;;28.00;47.00;;;;;;5114353;28;20018;-69
2022/08/25 07:50:47;;;;;;;;;;;28.00;47.00;;;;;;5113106;27;19912;-75
2022/08/25 07:53:13;;;;;;;;;;;28.00;46.90;;;;;;5111266;28;20269;-71
2022/08/25 07:55:40;;;;;;;;;;;28.10;46.90;;;;;;5115259;28;20003;-70
2022/08/25 07:58:06;;;;;;;;;;;28.10;46.90;;;;;;5115148;28;19935;-71
2022/08/25 08:00:33;;;;;;;;;;;28.10;47.00;;;;;;5115053;28;19959;-72
2022/08/25 08:02:59;;;;;;;;;;;28.20;46.90;;;;;;5114042;28;19911;-71
2022/08/25 08:05:25;;;;;;;;;;;28.10;46.90;;;;;;5114774;28;19919;-71
2022/08/25 08:07:51;;;;;;;;;;;28.10;46.80;;;;;;5114767;28;19907;-70
2022/08/25 08:10:17;;;;;;;;;;;28.20;46.90;;;;;;5115141;28;19916;-73
2022/08/25 08:12:43;;;;;;;;;;;28.20;46.90;;;;;;5113405;28;19915;-71
2022/08/25 08:15:08;;;;;;;;;;;28.20;46.90;;;;;;5113719;28;19908;-69
2022/08/25 08:17:34;;;;;;;;;;;28.20;46.60;;;;;;5114897;28;20027;-72
2022/08/25 08:20:00;;;;;;;;;;;28.20;46.70;;;;;;5112150;28;20404;-71
2022/08/25 08:22:26;;;;;;;;;;;28.20;46.80;;;;;;5114553;28;19923;-72
2022/08/25 08:24:51;;;;;;;;;;;28.20;46.60;;;;;;5114563;28;19933;-69
2022/08/25 08:27:17;;;;;;;;;;;28.20;46.70;;;;;;5095749;28;19922;-69
2022/08/25 08:29:43;;;;;;;;;;;28.30;46.80;;;;;;5114470;28;19922;-70
2022/08/25 08:32:12;;;;;;;;;;;28.30;46.80;;;;;;5113386;28;19911;-71
2022/08/25 08:34:39;;;;;;;;;;;28.30;46.80;;;;;;5110192;28;19919;-71
2022/08/25 08:37:05;;;;;;;;;;;28.30;46.90;;;;;;5114408;28;20327;-68
2022/08/25 08:39:31;;;;;;;;;;;28.30;46.80;;;;;;5114309;28;19911;-71
2022/08/25 08:42:18;;;;;;;;;;;28.30;46.70;;;;;;5114109;28;20404;-71
2022/08/25 08:44:44;;;;;;;;;;;28.30;46.80;;;;;;5113207;28;19915;-69
2022/08/25 08:47:09;;;;;;;;;;;28.30;46.90;;;;;;5113430;28;20002;-69
2022/08/25 08:49:44;;;;;;;;;;;28.30;46.90;;;;;;5114613;28;19959;-70
2022/08/25 08:52:12;;;;;;;;;;;28.40;47.00;;;;;;5112718;28;19915;-71
2022/08/25 08:54:38;;;;;;;;;;;28.40;47.00;;;;;;5112405;28;19954;-69
2022/08/25 08:57:15;;;;;;;;;;;28.40;47.00;;;;;;5112880;28;19916;-71
2022/08/25 08:59:45;;;;;;;;;;;28.40;47.10;;;;;;5114330;28;19944;-72
2022/08/25 09:02:17;;;;;;;;;;;28.40;47.00;;;;;;5099171;28;19919;-70
2022/08/25 09:04:53;;;;;;;;;;;28.40;46.90;;;;;;5114426;28;19958;-71
2022/08/25 09:07:22;;;;;;;;;;;28.40;46.90;;;;;;5112783;28;20366;-72
2022/08/25 09:09:49;;;;;;;;;;;28.40;46.90;;;;;;5095649;28;19912;-71
2022/08/25 09:12:23;;;;;;;;;;;28.40;47.10;;;;;;5114054;28;19908;-71
2022/08/25 09:14:58;;;;;;;;;;;28.50;47.10;;;;;;5114073;28;19912;-72
2022/08/25 09:17:42;;;;;;;;;;;28.50;47.10;;;;;;5113074;28;19920;-71
2022/08/25 09:20:22;;;;;;;;;;;28.50;46.50;;;;;;5113650;28;19962;-72
2022/08/25 09:22:52;;;;;;;;;;;28.50;46.90;;;;;;5114889;28;19918;-71
2022/08/25 09:25:26;;;;;;;;;;;28.50;47.00;;;;;;5114748;28;19918;-70
2022/08/25 09:28:07;;;;;;;;;;;28.50;47.00;;;;;;5114796;28;19907;-70
2022/08/25 09:30:40;;;;;;;;;;;28.50;47.10;;;;;;5114604;28;20318;-74
2022/08/25 09:33:06;;;;;;;;;;;28.50;47.10;;;;;;5114994;28;19966;-72
2022/08/25 09:35:33;;;;;;;;;;;28.50;47.10;;;;;;5114572;28;20382;-70
2022/08/25 09:38:04;;;;;;;;;;;28.50;47.10;;;;;;5114617;28;19912;-71
2022/08/25 09:40:31;;;;;;;;;;;28.50;47.10;;;;;;5114727;28;19912;-71
2022/08/25 09:42:58;;;;;;;;;;;28.60;46.70;;;;;;5113267;28;19987;-73
2022/08/25 09:45:50;;;;;;;;;;;28.60;46.70;;;;;;5112887;28;19912;-71
2022/08/25 09:48:19;;;;;;;;;;;28.60;46.90;;;;;;5097945;28;19912;-70
2022/08/25 09:50:45;;;;;;;;;;;28.60;46.70;;;;;;5114538;28;19908;-70
2022/08/25 09:53:13;;;;;;;;;;;28.60;46.90;;;;;;5114399;28;20314;-73
2022/08/25 09:55:41;;;;;;;;;;;28.60;46.90;;;;;;5114710;28;19943;-72
2022/08/25 09:58:22;;;;;;;;;;;28.60;46.90;;;;;;5113107;28;20388;-71
2022/08/25 10:01:05;;;;;;;;;;;28.70;46.80;;;;;;5112976;28;19912;-71
2022/08/25 10:03:31;;;;;;;;;;;28.60;46.80;;;;;;5114346;28;19950;-71
2022/08/25 10:06:02;;;;;;;;;;;28.70;46.90;;;;;;5113511;28;20285;-71
2022/08/25 10:08:31;;;;;;;;;;;28.70;46.80;;;;;;5113611;28;20388;-71
2022/08/25 10:10:57;;;;;;;;;;;28.70;46.80;;;;;;5113871;28;19908;-72
2022/08/25 10:13:32;;;;;;;;;;;28.70;46.70;;;;;;5113711;28;19967;-72
2022/08/25 10:16:09;;;;;;;;;;;28.70;46.00;;;;;;5114017;28;20376;-71
2022/08/25 10:18:35;;;;;;;;;;;28.60;46.10;;;;;;5111717;28;19912;-70
2022/08/25 10:21:09;;;;;;;;;;;28.60;46.10;;;;;;5112424;28;20067;-73
2022/08/25 10:23:36;;;;;;;;;;;28.60;45.90;;;;;;5113815;28;19911;-70
2022/08/25 10:26:08;;;;;;;;;;;28.60;45.50;;;;;;5113631;28;19907;-71
2022/08/25 10:28:33;;;;;;;;;;;28.50;45.10;;;;;;5112566;28;19908;-71
2022/08/25 10:31:07;;;;;;;;;;;28.50;45.20;;;;;;5113648;28;20354;-71
2022/08/25 10:33:33;;;;;;;;;;;28.50;45.10;;;;;;5113829;28;20442;-73
2022/08/25 10:36:13;;;;;;;;;;;28.40;45.00;;;;;;5113814;28;19908;-72
2022/08/25 10:39:08;;;;;;;;;;;28.40;44.60;;;;;;5113621;28;19923;-72
2022/08/25 10:41:57;;;;;;;;;;;28.40;44.50;;;;;;5099994;28;19916;-73
2022/08/25 10:47:25;;;;;;;;;;;28.40;44.00;;;;;;5113748;28;20322;-73
2022/08/25 10:49:54;;;;;;;;;;;28.40;44.00;;;;;;5113903;28;20006;-73
2022/08/25 10:52:31;;;;;;;;;;;28.30;43.60;;;;;;5113502;28;19965;-72
2022/08/25 10:55:20;;;;;;;;;;;28.30;43.80;;;;;;5112457;28;19947;-74
2022/08/25 10:58:24;;;;;;;;;;;28.40;43.50;;;;;;5084817;28;19915;-74
2022/08/25 11:01:05;;;;;;;;;;;28.30;43.40;;;;;;5034048;28;20337;-72
2022/08/25 11:03:43;;;;;;;;;;;28.30;42.80;;;;;;5050621;28;19913;-74
2022/08/25 11:06:29;;;;;;;;;;;28.30;43.60;;;;;;5092067;28;19908;-73
2022/08/25 11:08:59;;;;;;;;;;;28.40;43.50;;;;;;5113196;28;19908;-73
2022/08/25 11:11:30;;;;;;;;;;;28.40;43.50;;;;;;5112233;28;19930;-74
2022/08/25 11:14:08;;;;;;;;;;;28.40;42.80;;;;;;5113398;28;20160;-75
2022/08/25 11:16:44;;;;;;;;;;;28.40;42.80;;;;;;5113233;28;19919;-74
2022/08/25 11:19:16;;;;;;;;;;;28.40;43.20;;;;;;5114988;28;19908;-74
2022/08/25 11:22:00;;;;;;;;;;;28.40;42.60;;;;;;5116786;28;19919;-74
2022/08/25 11:24:26;;;;;;;;;;;28.40;43.10;;;;;;5115937;28;19916;-75
2022/08/25 11:26:54;;;;;;;;;;;28.40;43.00;;;;;;5116310;28;19908;-74
2022/08/25 11:29:21;;;;;;;;;;;28.40;42.80;;;;;;5115900;28;19931;-73
2022/08/25 11:31:48;;;;;;;;;;;28.40;42.50;;;;;;5116039;28;19912;-74
2022/08/25 11:34:14;;;;;;;;;;;28.40;42.90;;;;;;5117521;28;20378;-74
2022/08/25 11:36:42;;;;;;;;;;;28.40;42.90;;;;;;5115725;28;19911;-74
2022/08/25 11:39:14;;;;;;;;;;;28.50;43.00;;;;;;5116065;28;20296;-73
2022/08/25 11:41:48;;;;;;;;;;;28.40;42.60;;;;;;5115705;28;19919;-72
2022/08/25 11:44:48;;;;;;;;;;;28.40;42.50;;;;;;5116907;28;19919;-74
2022/08/25 11:47:29;;;;;;;;;;;28.50;42.50;;;;;;5054237;28;19909;-72
2022/08/25 11:50:02;;;;;;;;;;;28.50;41.80;;;;;;5110342;28;19908;-72
2022/08/25 11:52:30;;;;;;;;;;;28.50;42.40;;;;;;5117474;28;19908;-73
2022/08/25 11:55:04;;;;;;;;;;;28.50;41.90;;;;;;5117545;28;19915;-74
2022/08/25 11:57:30;;;;;;;;;;;28.50;42.50;;;;;;5116121;28;19961;-72
2022/08/25 12:00:11;;;;;;;;;;;28.50;42.30;;;;;;5117333;28;19918;-73
2022/08/25 12:02:37;;;;;;;;;;;28.50;42.40;;;;;;5116546;28;19911;-73
2022/08/25 12:05:15;;;;;;;;;;;28.50;42.30;;;;;;5114309;28;20362;-74
2022/08/25 12:07:44;;;;;;;;;;;28.60;42.20;;;;;;5116660;28;19908;-73
2022/08/25 12:10:11;;;;;;;;;;;28.50;41.80;;;;;;5116656;28;19915;-73
2022/08/25 12:12:40;;;;;;;;;;;28.60;42.20;;;;;;5115339;28;20354;-73
2022/08/25 12:15:32;;;;;;;;;;;28.60;42.20;;;;;;5117177;28;19912;-74
2022/08/25 12:18:13;;;;;;;;;;;28.60;41.80;;;;;;5115561;28;19919;-73
2022/08/25 12:21:00;;;;;;;;;;;28.70;41.90;;;;;;5116850;28;19959;-74
2022/08/25 12:23:34;;;;;;;;;;;28.70;42.00;;;;;;5101178;28;19923;-74
2022/08/25 12:26:01;;;;;;;;;;;28.70;41.80;;;;;;5116776;28;20011;-74
2022/08/25 12:28:41;;;;;;;;;;;28.80;41.90;;;;;;5116509;28;19907;-74
2022/08/25 12:31:10;;;;;;;;;;;28.80;42.10;;;;;;5116513;28;19911;-74
2022/08/25 12:34:05;;;;;;;;;;;28.80;41.80;;;;;;5116604;28;19935;-74
2022/08/25 12:36:32;;;;;;;;;;;28.80;41.80;;;;;;5102749;28;19984;-74
2022/08/25 12:39:10;;;;;;;;;;;28.80;41.30;;;;;;5116709;28;19994;-73
2022/08/25 12:41:50;;;;;;;;;;;28.90;41.40;;;;;;5116372;28;19955;-73
2022/08/25 12:44:38;;;;;;;;;;;28.90;40.90;;;;;;5116631;28;19960;-72
2022/08/25 12:47:26;;;;;;;;;;;28.90;41.10;;;;;;5116465;28;20002;-73
2022/08/25 12:49:51;;;;;;;;;;;29.00;41.60;;;;;;5115042;28;19915;-74
2022/08/25 12:52:22;;;;;;;;;;;29.10;41.50;;;;;;5114987;28;19908;-74
2022/08/25 12:54:51;;;;;;;;;;;29.10;41.00;;;;;;5116392;28;20410;-73
2022/08/25 12:57:42;;;;;;;;;;;29.20;41.10;;;;;;5114844;28;19950;-74
2022/08/25 13:00:16;;;;;;;;;;;29.30;40.90;;;;;;5097183;28;19911;-74
2022/08/25 13:03:20;;;;;;;;;;;29.30;40.70;;;;;;5114901;28;19954;-73
2022/08/25 13:06:07;;;;;;;;;;;29.40;40.20;;;;;;5053683;28;19912;-73
2022/08/25 13:08:36;;;;;;;;;;;29.50;40.50;;;;;;5053291;28;19908;-74
2022/08/25 13:11:20;;;;;;;;;;;29.60;39.70;;;;;;5092810;28;20366;-74
2022/08/25 13:13:50;;;;;;;;;;;29.70;40.00;;;;;;5116173;28;19912;-73
2022/08/25 13:16:20;;;;;;;;;;;29.80;39.90;;;;;;5115962;28;19981;-74
2022/08/25 13:18:46;;;;;;;;;;;29.80;40.40;;;;;;5114368;28;19919;-74
2022/08/25 13:21:12;;;;;;;;;;;29.90;39.90;;;;;;5114053;28;19916;-72
2022/08/25 13:23:39;;;;;;;;;;;30.00;39.60;;;;;;5114724;28;19912;-75
2022/08/25 13:26:04;;;;;;;;;;;30.10;39.30;;;;;;5114459;28;19958;-73
2022/08/25 13:28:32;;;;;;;;;;;30.20;39.90;;;;;;5115341;28;19908;-72
2022/08/25 13:31:00;;;;;;;;;;;30.40;39.20;;;;;;5113890;28;20378;-73
2022/08/25 13:33:26;;;;;;;;;;;30.60;39.20;;;;;;5113811;28;19919;-74
2022/08/25 13:37:26;;;;;;;;;;;30.80;38.40;;;;;;5115756;28;20309;-73
2022/08/25 13:38:39;;;;;;;;;;;31.10;38.90;;;;;;5115766;28;19916;-73
2022/08/25 13:41:06;;;;;;;;;;;31.50;37.70;;;;;;5113612;28;20273;-72
2022/08/25 13:43:31;;;;;;;;;;;32.00;37.70;;;;;;5115816;28;20285;-73
2022/08/25 13:45:57;;;;;;;;;;;32.30;38.30;;;;;;5114317;28;19956;-74
2022/08/25 13:48:36;;;;;;;;;;;32.80;38.40;;;;;;5113994;28;19957;-74
2022/08/25 13:51:28;;;;;;;;;;;33.20;37.60;;;;;;5114990;28;19908;-74
2022/08/25 13:53:59;;;;;;;;;;;33.70;38.80;;;;;;5109965;28;19947;-74
2022/08/25 13:56:27;;;;;;;;;;;34.30;36.60;;;;;;5114957;28;19908;-74
2022/08/25 13:58:53;;;;;;;;;;;34.70;36.90;;;;;;5114832;28;19942;-73
2022/08/25 14:01:24;;;;;;;;;;;35.10;37.90;;;;;;5114824;28;20060;-74
2022/08/25 14:03:50;;;;;;;;;;;35.50;38.30;;;;;;5113668;28;19912;-73
2022/08/25 14:06:16;;;;;;;;;;;35.90;38.00;;;;;;5114953;28;19994;-72
2022/08/25 14:08:43;;;;;;;;;;;36.30;37.80;;;;;;5113391;28;19943;-72
2022/08/25 14:11:11;;;;;;;;;;;36.70;37.00;;;;;;5114468;28;19908;-73
2022/08/25 14:13:38;;;;;;;;;;;36.90;36.90;;;;;;5113209;28;19959;-73
2022/08/25 14:16:08;;;;;;;;;;;37.10;35.90;;;;;;5114365;28;19908;-74
2022/08/25 14:18:34;;;;;;;;;;;37.20;36.40;;;;;;5114624;28;19959;-74
2022/08/25 14:21:01;;;;;;;;;;;37.30;34.60;;;;;;5114606;28;19967;-74
2022/08/25 14:23:28;;;;;;;;;;;37.30;36.40;;;;;;5114635;28;19912;-73
2022/08/25 14:25:55;;;;;;;;;;;37.30;35.60;;;;;;5113276;28;19976;-73
2022/08/25 14:28:22;;;;;;;;;;;37.40;35.40;;;;;;5114877;28;19915;-74
2022/08/25 14:30:49;;;;;;;;;;;37.40;34.50;;;;;;5114211;28;19908;-73
2022/08/25 14:33:16;;;;;;;;;;;37.60;34.50;;;;;;5114869;28;20273;-74